sensor_id;sensor_type;location;lat;lon;timestamp;pressure;altitude;pressure_sealevel;temperature
27826;BMP280;15077;49.704;9.908;2024-01-07T00:01:32;97573.28;;;9.94
27826;BMP280;15077;49.704;9.908;2024-01-07T00:03:57;97569.94;;;9.93
27826;BMP280;15077;49.704;9.908;2024-01-07T00:06:24;97565.75;;;9.92
27826;BMP280;15077;49.704;9.908;2024-01-07T00:08:51;97569.94;;;9.93
27826;BMP280;15077;49.704;9.908;2024-01-07T00:11:16;97570.75;;;9.94
27826;BMP280;15077;49.704;9.908;2024-01-07T00:13:42;97576.63;;;9.94
27826;BMP280;15077;49.704;9.908;2024-01-07T00:16:08;97582.66;;;9.92
27826;BMP280;15077;49.704;9.908;2024-01-07T00:18:34;97585.13;;;9.93
27826;BMP280;15077;49.704;9.908;2024-01-07T00:20:59;97580.94;;;9.92
27826;BMP280;15077;49.704;9.908;2024-01-07T00:23:25;97586.00;;;9.92
27826;BMP280;15077;49.704;9.908;2024-01-07T00:25:51;97585.13;;;9.93
27826;BMP280;15077;49.704;9.908;2024-01-07T00:28:16;97585.13;;;9.93
27826;BMP280;15077;49.704;9.908;2024-01-07T00:30:42;97585.13;;;9.93
27826;BMP280;15077;49.704;9.908;2024-01-07T00:33:07;97582.66;;;9.92
27826;BMP280;15077;49.704;9.908;2024-01-07T00:35:33;97573.34;;;9.92
27826;BMP280;15077;49.704;9.908;2024-01-07T00:37:59;97580.94;;;9.92
27826;BMP280;15077;49.704;9.908;2024-01-07T00:40:25;97569.16;;;9.91
27826;BMP280;15077;49.704;9.908;2024-01-07T00:42:52;97583.47;;;9.92
27826;BMP280;15077;49.704;9.908;2024-01-07T00:45:18;97570.81;;;9.92
27826;BMP280;15077;49.704;9.908;2024-01-07T00:47:43;97569.16;;;9.91
27826;BMP280;15077;49.704;9.908;2024-01-07T00:50:09;97581.00;;;9.91
27826;BMP280;15077;49.704;9.908;2024-01-07T00:52:35;97586.06;;;9.91
27826;BMP280;15077;49.704;9.908;2024-01-07T00:55:04;97585.25;;;9.90
27826;BMP280;15077;49.704;9.908;2024-01-07T00:57:30;97583.59;;;9.89
27826;BMP280;15077;49.704;9.908;2024-01-07T00:59:55;97590.31;;;9.90
27826;BMP280;15077;49.704;9.908;2024-01-07T01:02:21;97590.31;;;9.90
27826;BMP280;15077;49.704;9.908;2024-01-07T01:04:48;97591.94;;;9.91
27826;BMP280;15077;49.704;9.908;2024-01-07T01:07:14;97592.84;;;9.90
27826;BMP280;15077;49.704;9.908;2024-01-07T01:09:39;97590.31;;;9.90
27826;BMP280;15077;49.704;9.908;2024-01-07T01:12:05;97597.91;;;9.90
27826;BMP280;15077;49.704;9.908;2024-01-07T01:14:31;97598.72;;;9.91
27826;BMP280;15077;49.704;9.908;2024-01-07T01:16:56;97597.06;;;9.90
27826;BMP280;15077;49.704;9.908;2024-01-07T01:19:24;97593.72;;;9.89
27826;BMP280;15077;49.704;9.908;2024-01-07T01:21:50;97603.84;;;9.89
27826;BMP280;15077;49.704;9.908;2024-01-07T01:24:15;97600.50;;;9.89
27826;BMP280;15077;49.704;9.908;2024-01-07T01:26:41;97604.72;;;9.88
27826;BMP280;15077;49.704;9.908;2024-01-07T01:29:07;97600.56;;;9.87
27826;BMP280;15077;49.704;9.908;2024-01-07T01:31:32;97599.72;;;9.87
27826;BMP280;15077;49.704;9.908;2024-01-07T01:33:58;97604.00;;;9.86
27826;BMP280;15077;49.704;9.908;2024-01-07T01:36:24;97602.34;;;9.85
27826;BMP280;15077;49.704;9.908;2024-01-07T01:38:55;97603.25;;;9.84
27826;BMP280;15077;49.704;9.908;2024-01-07T01:41:21;97601.59;;;9.83
27826;BMP280;15077;49.704;9.908;2024-01-07T01:43:47;97604.13;;;9.83
27826;BMP280;15077;49.704;9.908;2024-01-07T01:46:13;97603.38;;;9.81
27826;BMP280;15077;49.704;9.908;2024-01-07T01:48:39;97610.97;;;9.81
27826;BMP280;15077;49.704;9.908;2024-01-07T01:51:06;97604.25;;;9.80
27826;BMP280;15077;49.704;9.908;2024-01-07T01:53:32;97610.19;;;9.79
27826;BMP280;15077;49.704;9.908;2024-01-07T01:56:00;97607.69;;;9.79
27826;BMP280;15077;49.704;9.908;2024-01-07T01:58:29;97604.41;;;9.77
27826;BMP280;15077;49.704;9.908;2024-01-07T02:00:56;97612.00;;;9.77
27826;BMP280;15077;49.704;9.908;2024-01-07T02:03:22;97615.34;;;9.78
27826;BMP280;15077;49.704;9.908;2024-01-07T02:05:50;97612.88;;;9.76
27826;BMP280;15077;49.704;9.908;2024-01-07T02:08:17;97614.59;;;9.76
27826;BMP280;15077;49.704;9.908;2024-01-07T02:10:44;97612.94;;;9.75
27826;BMP280;15077;49.704;9.908;2024-01-07T02:13:11;97613.78;;;9.75
27826;BMP280;15077;49.704;9.908;2024-01-07T02:15:37;97618.06;;;9.73
27826;BMP280;15077;49.704;9.908;2024-01-07T02:18:03;97618.13;;;9.72
27826;BMP280;15077;49.704;9.908;2024-01-07T02:20:29;97621.66;;;9.69
27826;BMP280;15077;49.704;9.908;2024-01-07T02:22:55;97620.94;;;9.66
27826;BMP280;15077;49.704;9.908;2024-01-07T02:25:23;97616.75;;;9.65
27826;BMP280;15077;49.704;9.908;2024-01-07T02:27:49;97621.09;;;9.63
27826;BMP280;15077;49.704;9.908;2024-01-07T02:30:15;97621.16;;;9.62
27826;BMP280;15077;49.704;9.908;2024-01-07T02:32:40;97629.63;;;9.61
27826;BMP280;15077;49.704;9.908;2024-01-07T02:35:06;97630.53;;;9.60
27826;BMP280;15077;49.704;9.908;2024-01-07T02:37:32;97632.22;;;9.59
27826;BMP280;15077;49.704;9.908;2024-01-07T02:39:57;97634.75;;;9.59
27826;BMP280;15077;49.704;9.908;2024-01-07T02:42:23;97631.41;;;9.59
27826;BMP280;15077;49.704;9.908;2024-01-07T02:44:48;97626.41;;;9.57
27826;BMP280;15077;49.704;9.908;2024-01-07T02:47:14;97633.94;;;9.59
27826;BMP280;15077;49.704;9.908;2024-01-07T02:49:40;97634.00;;;9.57
27826;BMP280;15077;49.704;9.908;2024-01-07T02:52:05;97625.59;;;9.57
27826;BMP280;15077;49.704;9.908;2024-01-07T02:54:31;97630.66;;;9.57
27826;BMP280;15077;49.704;9.908;2024-01-07T02:56:56;97624.81;;;9.55
27826;BMP280;15077;49.704;9.908;2024-01-07T02:59:22;97633.31;;;9.54
27826;BMP280;15077;49.704;9.908;2024-01-07T03:01:48;97633.38;;;9.52
27826;BMP280;15077;49.704;9.908;2024-01-07T03:04:16;97630.94;;;9.51
27826;BMP280;15077;49.704;9.908;2024-01-07T03:06:42;97631.00;;;9.49
27826;BMP280;15077;49.704;9.908;2024-01-07T03:09:08;97631.88;;;9.48
27826;BMP280;15077;49.704;9.908;2024-01-07T03:11:39;97637.00;;;9.47
27826;BMP280;15077;49.704;9.908;2024-01-07T03:14:05;97640.41;;;9.46
27826;BMP280;15077;49.704;9.908;2024-01-07T03:16:31;97642.94;;;9.46
27826;BMP280;15077;49.704;9.908;2024-01-07T03:18:57;97639.66;;;9.44
27826;BMP280;15077;49.704;9.908;2024-01-07T03:21:23;97646.50;;;9.42
27826;BMP280;15077;49.704;9.908;2024-01-07T03:23:49;97643.19;;;9.40
27826;BMP280;15077;49.704;9.908;2024-01-07T03:26:17;97648.25;;;9.40
27826;BMP280;15077;49.704;9.908;2024-01-07T03:28:43;97646.63;;;9.39
27826;BMP280;15077;49.704;9.908;2024-01-07T03:31:13;97652.56;;;9.38
27826;BMP280;15077;49.704;9.908;2024-01-07T03:33:40;97651.75;;;9.37
27826;BMP280;15077;49.704;9.908;2024-01-07T03:36:11;97660.22;;;9.36
27826;BMP280;15077;49.704;9.908;2024-01-07T03:38:37;97648.50;;;9.34
27826;BMP280;15077;49.704;9.908;2024-01-07T03:41:03;97648.66;;;9.31
27826;BMP280;15077;49.704;9.908;2024-01-07T03:43:29;97649.69;;;9.27
27826;BMP280;15077;49.704;9.908;2024-01-07T03:45:55;97648.91;;;9.25
27826;BMP280;15077;49.704;9.908;2024-01-07T03:48:20;97652.41;;;9.22
27826;BMP280;15077;49.704;9.908;2024-01-07T03:50:46;97654.09;;;9.22
27826;BMP280;15077;49.704;9.908;2024-01-07T03:53:12;97658.41;;;9.20
27826;BMP280;15077;49.704;9.908;2024-01-07T03:55:38;97654.22;;;9.19
27826;BMP280;15077;49.704;9.908;2024-01-07T03:58:04;97661.81;;;9.19
27826;BMP280;15077;49.704;9.908;2024-01-07T04:00:30;97662.69;;;9.18
27826;BMP280;15077;49.704;9.908;2024-01-07T04:02:55;97671.09;;;9.18
27826;BMP280;15077;49.704;9.908;2024-01-07T04:05:21;97668.56;;;9.18
27826;BMP280;15077;49.704;9.908;2024-01-07T04:07:47;97667.75;;;9.18
27826;BMP280;15077;49.704;9.908;2024-01-07T04:10:12;97670.25;;;9.18
27826;BMP280;15077;49.704;9.908;2024-01-07T04:12:38;97677.03;;;9.18
27826;BMP280;15077;49.704;9.908;2024-01-07T04:15:04;97670.31;;;9.17
27826;BMP280;15077;49.704;9.908;2024-01-07T04:17:30;97670.31;;;9.17
27826;BMP280;15077;49.704;9.908;2024-01-07T04:19:58;97680.44;;;9.17
27826;BMP280;15077;49.704;9.908;2024-01-07T04:22:23;97684.69;;;9.16
27826;BMP280;15077;49.704;9.908;2024-01-07T04:24:49;97679.63;;;9.16
27826;BMP280;15077;49.704;9.908;2024-01-07T04:27:14;97685.56;;;9.15
27826;BMP280;15077;49.704;9.908;2024-01-07T04:29:40;97683.16;;;9.12
27826;BMP280;15077;49.704;9.908;2024-01-07T04:32:06;97693.34;;;9.11
27826;BMP280;15077;49.704;9.908;2024-01-07T04:34:31;97694.25;;;9.10
27826;BMP280;15077;49.704;9.908;2024-01-07T04:36:57;97691.91;;;9.05
27826;BMP280;15077;49.704;9.908;2024-01-07T04:39:22;97696.22;;;9.02
27826;BMP280;15077;49.704;9.908;2024-01-07T04:41:48;97698.25;;;8.94
27826;BMP280;15077;49.704;9.908;2024-01-07T04:44:14;97704.38;;;8.88
27826;BMP280;15077;49.704;9.908;2024-01-07T04:46:40;97721.50;;;8.82
27826;BMP280;15077;49.704;9.908;2024-01-07T04:49:06;97717.38;;;8.79
27826;BMP280;15077;49.704;9.908;2024-01-07T04:51:32;97727.53;;;8.78
27826;BMP280;15077;49.704;9.908;2024-01-07T04:53:58;97720.13;;;8.73
27826;BMP280;15077;49.704;9.908;2024-01-07T04:56:24;97728.59;;;8.72
27826;BMP280;15077;49.704;9.908;2024-01-07T04:58:50;97735.41;;;8.70
27826;BMP280;15077;49.704;9.908;2024-01-07T05:01:15;97724.81;;;8.63
27826;BMP280;15077;49.704;9.908;2024-01-07T05:03:41;97736.88;;;8.55
27826;BMP280;15077;49.704;9.908;2024-01-07T05:06:10;97737.97;;;8.49
27826;BMP280;15077;49.704;9.908;2024-01-07T05:08:40;97749.97;;;8.43
27826;BMP280;15077;49.704;9.908;2024-01-07T05:11:06;97746.69;;;8.41
27826;BMP280;15077;49.704;9.908;2024-01-07T05:13:32;97754.38;;;8.38
27826;BMP280;15077;49.704;9.908;2024-01-07T05:15:57;97754.56;;;8.33
27826;BMP280;15077;49.704;9.908;2024-01-07T05:18:23;97754.59;;;8.32
27826;BMP280;15077;49.704;9.908;2024-01-07T05:20:50;97757.25;;;8.29
27826;BMP280;15077;49.704;9.908;2024-01-07T05:23:16;97767.47;;;8.26
27826;BMP280;15077;49.704;9.908;2024-01-07T05:25:45;97756.63;;;8.22
27826;BMP280;15077;49.704;9.908;2024-01-07T05:28:12;97765.22;;;8.19
27826;BMP280;15077;49.704;9.908;2024-01-07T05:30:43;97757.69;;;8.17
27826;BMP280;15077;49.704;9.908;2024-01-07T05:33:09;97773.88;;;8.12
27826;BMP280;15077;49.704;9.908;2024-01-07T05:35:35;97770.66;;;8.07
27826;BMP280;15077;49.704;9.908;2024-01-07T05:38:01;97773.25;;;8.05
27826;BMP280;15077;49.704;9.908;2024-01-07T05:40:26;97775.03;;;8.02
27826;BMP280;15077;49.704;9.908;2024-01-07T05:42:52;97777.63;;;8.00
27826;BMP280;15077;49.704;9.908;2024-01-07T05:45:18;97786.13;;;7.98
27826;BMP280;15077;49.704;9.908;2024-01-07T05:47:43;97792.91;;;7.96
27826;BMP280;15077;49.704;9.908;2024-01-07T05:50:09;97789.69;;;7.92
27826;BMP280;15077;49.704;9.908;2024-01-07T05:52:36;97799.06;;;7.89
27826;BMP280;15077;49.704;9.908;2024-01-07T05:55:01;97801.03;;;7.81
27826;BMP280;15077;49.704;9.908;2024-01-07T05:57:27;97791.91;;;7.77
27826;BMP280;15077;49.704;9.908;2024-01-07T05:59:52;97803.81;;;7.73
27826;BMP280;15077;49.704;9.908;2024-01-07T06:02:18;97802.25;;;7.70
27826;BMP280;15077;49.704;9.908;2024-01-07T06:04:44;97809.91;;;7.67
27826;BMP280;15077;49.704;9.908;2024-01-07T06:07:09;97809.22;;;7.63
27826;BMP280;15077;49.704;9.908;2024-01-07T06:09:35;97817.63;;;7.62
27826;BMP280;15077;49.704;9.908;2024-01-07T06:12:01;97810.97;;;7.61
27826;BMP280;15077;49.704;9.908;2024-01-07T06:14:27;97818.59;;;7.60
27826;BMP280;15077;49.704;9.908;2024-01-07T06:16:52;97822.84;;;7.58
27826;BMP280;15077;49.704;9.908;2024-01-07T06:19:18;97825.34;;;7.58
27826;BMP280;15077;49.704;9.908;2024-01-07T06:21:44;97823.00;;;7.53
27826;BMP280;15077;49.704;9.908;2024-01-07T06:24:10;97831.59;;;7.48
27826;BMP280;15077;49.704;9.908;2024-01-07T06:26:36;97831.75;;;7.43
27826;BMP280;15077;49.704;9.908;2024-01-07T06:29:02;97840.22;;;7.41
27826;BMP280;15077;49.704;9.908;2024-01-07T06:31:28;97840.47;;;7.33
27826;BMP280;15077;49.704;9.908;2024-01-07T06:33:53;97840.66;;;7.27
27826;BMP280;15077;49.704;9.908;2024-01-07T06:36:22;97846.72;;;7.22
27826;BMP280;15077;49.704;9.908;2024-01-07T06:38:47;97851.69;;;7.23
27826;BMP280;15077;49.704;9.908;2024-01-07T06:41:14;97854.13;;;7.26
27826;BMP280;15077;49.704;9.908;2024-01-07T06:43:40;97857.38;;;7.30
27826;BMP280;15077;49.704;9.908;2024-01-07T06:46:05;97869.19;;;7.28
27826;BMP280;15077;49.704;9.908;2024-01-07T06:48:31;97867.59;;;7.25
27826;BMP280;15077;49.704;9.908;2024-01-07T06:50:57;97875.09;;;7.27
27826;BMP280;15077;49.704;9.908;2024-01-07T06:53:23;97875.94;;;7.27
27826;BMP280;15077;49.704;9.908;2024-01-07T06:55:49;97883.56;;;7.26
27826;BMP280;15077;49.704;9.908;2024-01-07T06:58:15;97882.75;;;7.24
27826;BMP280;15077;49.704;9.908;2024-01-07T07:00:40;97892.97;;;7.20
27826;BMP280;15077;49.704;9.908;2024-01-07T07:03:06;97889.84;;;7.13
27826;BMP280;15077;49.704;9.908;2024-01-07T07:05:32;97885.75;;;7.09
27826;BMP280;15077;49.704;9.908;2024-01-07T07:07:58;97891.69;;;7.08
27826;BMP280;15077;49.704;9.908;2024-01-07T07:10:24;97895.06;;;7.07
27826;BMP280;15077;49.704;9.908;2024-01-07T07:12:50;97890.13;;;7.04
27826;BMP280;15077;49.704;9.908;2024-01-07T07:15:17;97898.53;;;7.03
27826;BMP280;15077;49.704;9.908;2024-01-07T07:17:42;97903.72;;;6.99
27826;BMP280;15077;49.704;9.908;2024-01-07T07:20:08;97905.50;;;6.95
27826;BMP280;15077;49.704;9.908;2024-01-07T07:22:34;97904.75;;;6.93
27826;BMP280;15077;49.704;9.908;2024-01-07T07:25:00;97909.84;;;6.90
27826;BMP280;15077;49.704;9.908;2024-01-07T07:27:26;97914.06;;;6.90
27826;BMP280;15077;49.704;9.908;2024-01-07T07:29:51;97916.53;;;6.91
27826;BMP280;15077;49.704;9.908;2024-01-07T07:32:17;97911.59;;;6.88
27826;BMP280;15077;49.704;9.908;2024-01-07T07:34:43;97931.66;;;6.91
27826;BMP280;15077;49.704;9.908;2024-01-07T07:37:09;97921.47;;;6.94
27826;BMP280;15077;49.704;9.908;2024-01-07T07:39:35;97927.22;;;6.99
27826;BMP280;15077;49.704;9.908;2024-01-07T07:42:01;97927.81;;;7.07
27826;BMP280;15077;49.704;9.908;2024-01-07T07:44:26;97927.63;;;7.13
27826;BMP280;15077;49.704;9.908;2024-01-07T07:46:52;97930.84;;;7.18
27826;BMP280;15077;49.704;9.908;2024-01-07T07:49:17;97929.03;;;7.23
27826;BMP280;15077;49.704;9.908;2024-01-07T07:51:43;97940.66;;;7.27
27826;BMP280;15077;49.704;9.908;2024-01-07T07:54:09;97937.22;;;7.29
27826;BMP280;15077;49.704;9.908;2024-01-07T07:56:35;97943.06;;;7.30
27826;BMP280;15077;49.704;9.908;2024-01-07T07:59:04;97954.00;;;7.30
27826;BMP280;15077;49.704;9.908;2024-01-07T08:01:29;97956.56;;;7.29
27826;BMP280;15077;49.704;9.908;2024-01-07T08:03:55;97962.50;;;7.26
27826;BMP280;15077;49.704;9.908;2024-01-07T08:06:21;97955.84;;;7.24
27826;BMP280;15077;49.704;9.908;2024-01-07T08:08:47;97959.28;;;7.23
27826;BMP280;15077;49.704;9.908;2024-01-07T08:11:12;97959.38;;;7.20
27826;BMP280;15077;49.704;9.908;2024-01-07T08:13:38;97963.59;;;7.18
27826;BMP280;15077;49.704;9.908;2024-01-07T08:16:04;97967.97;;;7.13
27826;BMP280;15077;49.704;9.908;2024-01-07T08:18:34;97976.38;;;7.12
27826;BMP280;15077;49.704;9.908;2024-01-07T08:21:00;97972.31;;;7.08
27826;BMP280;15077;49.704;9.908;2024-01-07T08:23:26;97974.94;;;7.05
27826;BMP280;15077;49.704;9.908;2024-01-07T08:25:51;97969.97;;;7.02
27826;BMP280;15077;49.704;9.908;2024-01-07T08:28:17;97968.31;;;7.01
27826;BMP280;15077;49.704;9.908;2024-01-07T08:30:44;97968.31;;;7.01
27826;BMP280;15077;49.704;9.908;2024-01-07T08:33:10;97970.03;;;7.01
27826;BMP280;15077;49.704;9.908;2024-01-07T08:35:36;97970.84;;;7.01
27826;BMP280;15077;49.704;9.908;2024-01-07T08:38:02;97973.44;;;6.98
27826;BMP280;15077;49.704;9.908;2024-01-07T08:40:28;97971.78;;;6.97
27826;BMP280;15077;49.704;9.908;2024-01-07T08:42:54;97975.97;;;6.98
27826;BMP280;15077;49.704;9.908;2024-01-07T08:45:20;97981.00;;;6.98
27826;BMP280;15077;49.704;9.908;2024-01-07T08:47:46;97980.16;;;6.99
27826;BMP280;15077;49.704;9.908;2024-01-07T08:50:12;97986.81;;;7.00
27826;BMP280;15077;49.704;9.908;2024-01-07T08:52:38;97975.88;;;7.01
27826;BMP280;15077;49.704;9.908;2024-01-07T08:55:04;97974.16;;;7.02
27826;BMP280;15077;49.704;9.908;2024-01-07T08:57:34;97992.56;;;7.05
27826;BMP280;15077;49.704;9.908;2024-01-07T09:00:00;97995.09;;;7.05
27826;BMP280;15077;49.704;9.908;2024-01-07T09:02:25;97987.50;;;7.07
27826;BMP280;15077;49.704;9.908;2024-01-07T09:04:51;97981.50;;;7.09
27826;BMP280;15077;49.704;9.908;2024-01-07T09:07:17;97984.00;;;7.11
27826;BMP280;15077;49.704;9.908;2024-01-07T09:09:44;97985.69;;;7.10
27826;BMP280;15077;49.704;9.908;2024-01-07T09:12:10;97981.50;;;7.09
27826;BMP280;15077;49.704;9.908;2024-01-07T09:14:39;97998.28;;;7.10
27826;BMP280;15077;49.704;9.908;2024-01-07T09:17:04;98002.53;;;7.10
27826;BMP280;15077;49.704;9.908;2024-01-07T09:19:30;98004.25;;;7.08
27826;BMP280;15077;49.704;9.908;2024-01-07T09:21:56;98008.47;;;7.07
27826;BMP280;15077;49.704;9.908;2024-01-07T09:24:21;98010.06;;;7.10
27826;BMP280;15077;49.704;9.908;2024-01-07T09:26:47;98014.22;;;7.11
27826;BMP280;15077;49.704;9.908;2024-01-07T09:29:13;98020.13;;;7.11
27826;BMP280;15077;49.704;9.908;2024-01-07T09:31:39;98013.53;;;7.06
27826;BMP280;15077;49.704;9.908;2024-01-07T09:34:05;98016.19;;;7.01
27826;BMP280;15077;49.704;9.908;2024-01-07T09:36:33;98021.22;;;7.01
27826;BMP280;15077;49.704;9.908;2024-01-07T09:38:58;98029.78;;;6.96
27826;BMP280;15077;49.704;9.908;2024-01-07T09:41:24;98034.09;;;6.92
27826;BMP280;15077;49.704;9.908;2024-01-07T09:43:51;98032.41;;;6.91
27826;BMP280;15077;49.704;9.908;2024-01-07T09:46:17;98032.50;;;6.88
27826;BMP280;15077;49.704;9.908;2024-01-07T09:48:43;98042.00;;;6.79
27826;BMP280;15077;49.704;9.908;2024-01-07T09:51:09;98031.16;;;6.75
27826;BMP280;15077;49.704;9.908;2024-01-07T09:53:38;98034.66;;;6.72
27826;BMP280;15077;49.704;9.908;2024-01-07T09:56:23;98040.50;;;6.72
27826;BMP280;15077;49.704;9.908;2024-01-07T09:58:50;98047.25;;;6.72
27826;BMP280;15077;49.704;9.908;2024-01-07T10:01:19;98049.81;;;6.70
27826;BMP280;15077;49.704;9.908;2024-01-07T10:03:45;98056.50;;;6.70
27826;BMP280;15077;49.704;9.908;2024-01-07T10:06:11;98064.13;;;6.68
27826;BMP280;15077;49.704;9.908;2024-01-07T10:08:38;98065.03;;;6.66
27826;BMP280;15077;49.704;9.908;2024-01-07T10:11:04;98065.03;;;6.66
27826;BMP280;15077;49.704;9.908;2024-01-07T10:13:31;98062.63;;;6.61
27826;BMP280;15077;49.704;9.908;2024-01-07T10:15:57;98072.72;;;6.61
27826;BMP280;15077;49.704;9.908;2024-01-07T10:18:23;98063.50;;;6.60
27826;BMP280;15077;49.704;9.908;2024-01-07T10:20:50;98065.19;;;6.60
27826;BMP280;15077;49.704;9.908;2024-01-07T10:23:19;98064.31;;;6.61
27826;BMP280;15077;49.704;9.908;2024-01-07T10:25:45;98071.09;;;6.59
27826;BMP280;15077;49.704;9.908;2024-01-07T10:28:11;98069.38;;;6.59
27826;BMP280;15077;49.704;9.908;2024-01-07T10:30:40;98074.47;;;6.58
27826;BMP280;15077;49.704;9.908;2024-01-07T10:33:07;98082.09;;;6.55
27826;BMP280;15077;49.704;9.908;2024-01-07T10:35:35;98093.97;;;6.50
27826;BMP280;15077;49.704;9.908;2024-01-07T10:38:01;98091.59;;;6.44
27826;BMP280;15077;49.704;9.908;2024-01-07T10:40:30;98098.34;;;6.42
27826;BMP280;15077;49.704;9.908;2024-01-07T10:42:56;98090.06;;;6.38
27826;BMP280;15077;49.704;9.908;2024-01-07T10:45:22;98095.91;;;6.39
27826;BMP280;15077;49.704;9.908;2024-01-07T10:47:49;98100.94;;;6.39
27826;BMP280;15077;49.704;9.908;2024-01-07T10:50:18;98096.75;;;6.39
27826;BMP280;15077;49.704;9.908;2024-01-07T10:52:49;98094.28;;;6.38
27826;BMP280;15077;49.704;9.908;2024-01-07T10:55:17;98090.94;;;6.36
27826;BMP280;15077;49.704;9.908;2024-01-07T10:57:44;98089.31;;;6.35
27826;BMP280;15077;49.704;9.908;2024-01-07T11:00:14;98100.38;;;6.28
27826;BMP280;15077;49.704;9.908;2024-01-07T11:03:00;98106.34;;;6.24
27826;BMP280;15077;49.704;9.908;2024-01-07T11:05:52;98101.31;;;6.24
27826;BMP280;15077;49.704;9.908;2024-01-07T11:08:30;98101.34;;;6.23
27826;BMP280;15077;49.704;9.908;2024-01-07T11:11:06;98102.31;;;6.19
27826;BMP280;15077;49.704;9.908;2024-01-07T11:13:37;98106.47;;;6.18
27826;BMP280;15077;49.704;9.908;2024-01-07T11:16:09;98099.81;;;6.17
27826;BMP280;15077;49.704;9.908;2024-01-07T11:18:47;98108.22;;;6.16
27826;BMP280;15077;49.704;9.908;2024-01-07T11:21:23;98116.63;;;6.15
27826;BMP280;15077;49.704;9.908;2024-01-07T11:23:52;98111.59;;;6.15
27826;BMP280;15077;49.704;9.908;2024-01-07T11:26:19;98109.06;;;6.15
27826;BMP280;15077;49.704;9.908;2024-01-07T11:28:56;98110.88;;;6.10
27826;BMP280;15077;49.704;9.908;2024-01-07T11:31:42;98100.09;;;6.05
27826;BMP280;15077;49.704;9.908;2024-01-07T11:34:08;98107.50;;;6.11
27826;BMP280;15077;49.704;9.908;2024-01-07T11:36:38;98114.91;;;6.17
27826;BMP280;15077;49.704;9.908;2024-01-07T11:39:04;98106.41;;;6.21
27826;BMP280;15077;49.704;9.908;2024-01-07T11:41:34;98110.63;;;6.21
27826;BMP280;15077;49.704;9.908;2024-01-07T11:44:01;98108.84;;;6.24
27826;BMP280;15077;49.704;9.908;2024-01-07T11:46:29;98097.06;;;6.28
27826;BMP280;15077;49.704;9.908;2024-01-07T11:48:58;98102.81;;;6.31
27826;BMP280;15077;49.704;9.908;2024-01-07T11:51:25;98101.09;;;6.33
27826;BMP280;15077;49.704;9.908;2024-01-07T11:53:52;98098.59;;;6.31
27826;BMP280;15077;49.704;9.908;2024-01-07T11:56:18;98098.56;;;6.33
27826;BMP280;15077;49.704;9.908;2024-01-07T11:58:44;98110.34;;;6.32
27826;BMP280;15077;49.704;9.908;2024-01-07T12:01:09;98111.16;;;6.33
27826;BMP280;15077;49.704;9.908;2024-01-07T12:03:35;98107.72;;;6.37
27826;BMP280;15077;49.704;9.908;2024-01-07T12:06:02;98113.59;;;6.36
27826;BMP280;15077;49.704;9.908;2024-01-07T12:08:27;98112.81;;;6.34
27826;BMP280;15077;49.704;9.908;2024-01-07T12:10:54;98112.84;;;6.32
27826;BMP280;15077;49.704;9.908;2024-01-07T12:13:20;98119.59;;;6.32
27826;BMP280;15077;49.704;9.908;2024-01-07T12:15:46;98119.66;;;6.29
27826;BMP280;15077;49.704;9.908;2024-01-07T12:18:12;98111.25;;;6.28
27826;BMP280;15077;49.704;9.908;2024-01-07T12:20:37;98118.00;;;6.28
27826;BMP280;15077;49.704;9.908;2024-01-07T12:23:07;98109.66;;;6.26
27826;BMP280;15077;49.704;9.908;2024-01-07T12:25:34;98116.34;;;6.27
27826;BMP280;15077;49.704;9.908;2024-01-07T12:28:00;98121.38;;;6.27
27826;BMP280;15077;49.704;9.908;2024-01-07T12:30:25;98122.25;;;6.26
27826;BMP280;15077;49.704;9.908;2024-01-07T12:32:52;98121.38;;;6.27
27826;BMP280;15077;49.704;9.908;2024-01-07T12:35:18;98125.63;;;6.25
27826;BMP280;15077;49.704;9.908;2024-01-07T12:37:44;98120.66;;;6.22
27826;BMP280;15077;49.704;9.908;2024-01-07T12:40:10;98126.53;;;6.21
27826;BMP280;15077;49.704;9.908;2024-01-07T12:42:40;98126.53;;;6.21
27826;BMP280;15077;49.704;9.908;2024-01-07T12:45:11;98130.94;;;6.13
27826;BMP280;15077;49.704;9.908;2024-01-07T12:47:39;98124.47;;;6.02
27826;BMP280;15077;49.704;9.908;2024-01-07T12:50:05;98131.56;;;5.86
27826;BMP280;15077;49.704;9.908;2024-01-07T12:52:31;98139.38;;;5.72
27826;BMP280;15077;49.704;9.908;2024-01-07T12:54:57;98140.31;;;5.68
27826;BMP280;15077;49.704;9.908;2024-01-07T12:57:23;98144.66;;;5.60
27826;BMP280;15077;49.704;9.908;2024-01-07T12:59:49;98143.88;;;5.56
27826;BMP280;15077;49.704;9.908;2024-01-07T13:02:15;98149.81;;;5.54
27826;BMP280;15077;49.704;9.908;2024-01-07T13:04:41;98141.41;;;5.55
27826;BMP280;15077;49.704;9.908;2024-01-07T13:07:07;98152.34;;;5.52
27826;BMP280;15077;49.704;9.908;2024-01-07T13:09:32;98151.50;;;5.52
27826;BMP280;15077;49.704;9.908;2024-01-07T13:11:59;98149.13;;;5.46
27826;BMP280;15077;49.704;9.908;2024-01-07T13:14:24;98156.72;;;5.43
27826;BMP280;15077;49.704;9.908;2024-01-07T13:16:50;98157.63;;;5.39
27826;BMP280;15077;49.704;9.908;2024-01-07T13:19:16;98160.16;;;5.39
27826;BMP280;15077;49.704;9.908;2024-01-07T13:21:42;98159.28;;;5.40
27826;BMP280;15077;49.704;9.908;2024-01-07T13:24:07;98166.84;;;5.40
27826;BMP280;15077;49.704;9.908;2024-01-07T13:26:33;98174.34;;;5.41
27826;BMP280;15077;49.704;9.908;2024-01-07T13:28:59;98176.84;;;5.43
27826;BMP280;15077;49.704;9.908;2024-01-07T13:31:25;98179.44;;;5.38
27826;BMP280;15077;49.704;9.908;2024-01-07T13:33:51;98173.72;;;5.32
27826;BMP280;15077;49.704;9.908;2024-01-07T13:36:17;98183.88;;;5.26
27826;BMP280;15077;49.704;9.908;2024-01-07T13:38:43;98190.59;;;5.24
27826;BMP280;15077;49.704;9.908;2024-01-07T13:41:08;98195.66;;;5.21
27826;BMP280;15077;49.704;9.908;2024-01-07T13:43:34;98199.13;;;5.17
27826;BMP280;15077;49.704;9.908;2024-01-07T13:46:00;98204.19;;;5.14
27826;BMP280;15077;49.704;9.908;2024-01-07T13:48:27;98199.22;;;5.11
27826;BMP280;15077;49.704;9.908;2024-01-07T13:50:53;98204.25;;;5.11
27826;BMP280;15077;49.704;9.908;2024-01-07T13:53:19;98199.22;;;5.11
27826;BMP280;15077;49.704;9.908;2024-01-07T13:55:45;98208.47;;;5.08
27826;BMP280;15077;49.704;9.908;2024-01-07T13:58:12;98211.00;;;5.06
27826;BMP280;15077;49.704;9.908;2024-01-07T14:00:38;98210.19;;;5.06
27826;BMP280;15077;49.704;9.908;2024-01-07T14:03:04;98214.38;;;5.05
27826;BMP280;15077;49.704;9.908;2024-01-07T14:05:30;98217.72;;;5.07
27826;BMP280;15077;49.704;9.908;2024-01-07T14:07:55;98224.41;;;5.08
27826;BMP280;15077;49.704;9.908;2024-01-07T14:10:21;98223.56;;;5.06
27826;BMP280;15077;49.704;9.908;2024-01-07T14:12:46;98229.50;;;5.02
27826;BMP280;15077;49.704;9.908;2024-01-07T14:15:13;98227.06;;;4.98
27826;BMP280;15077;49.704;9.908;2024-01-07T14:17:38;98231.31;;;4.94